Time;durP1;ratioP1;P1;durP2;ratioP2;P2;SDS_P1;SDS_P2;PMS_P1;PMS_P2;Temp;Humidity;BMP_temperature;BMP_pressure;BME280_temperature;BME280_humidity;BME280_pressure;Samples;Min_cycle;Max_cycle;Signal;HPM_P1;HPM_P2
2021/11/09 00:07:13;;;;;;;3.33;0.50;;;2.10;99.90;;;;;;25835951;23;20008;-52
2021/11/09 00:17:16;;;;;;;1.00;0.32;;;2.40;99.90;;;;;;25835554;23;20142;-54
2021/11/09 00:27:20;;;;;;;2.00;0.40;;;2.60;99.90;;;;;;25834573;23;20331;-54
2021/11/09 00:37:23;;;;;;;1.88;0.60;;;2.00;99.90;;;;;;25808716;23;20019;-55
2021/11/09 00:47:26;;;;;;;3.20;0.60;;;1.70;99.90;;;;;;25808787;23;20358;-52
2021/11/09 00:57:29;;;;;;;0.95;0.50;;;1.70;99.90;;;;;;25834316;23;20004;-55
2021/11/09 01:07:32;;;;;;;1.10;0.47;;;1.30;99.90;;;;;;25833583;23;20008;-57
2021/11/09 01:17:35;;;;;;;1.25;0.40;;;1.40;99.90;;;;;;25810297;23;20484;-56
2021/11/09 01:27:39;;;;;;;2.13;0.40;;;1.40;99.90;;;;;;25833211;23;20008;-53
2021/11/09 01:37:42;;;;;;;2.80;0.32;;;1.80;99.90;;;;;;25838719;23;20016;-52
2021/11/09 01:47:46;;;;;;;1.17;0.43;;;2.40;99.90;;;;;;25842001;23;20016;-54
2021/11/09 01:57:50;;;;;;;2.67;0.30;;;2.50;99.90;;;;;;25792464;23;20016;-54
2021/11/09 02:07:57;;;;;;;0.80;0.20;;;2.50;99.90;;;;;;25841255;23;20499;-55
2021/11/09 02:18:00;;;;;;;1.20;0.40;;;2.70;99.90;;;;;;25841290;22;20016;-53
2021/11/09 02:28:03;;;;;;;1.60;0.30;;;2.90;99.90;;;;;;25840736;23;20016;-56
2021/11/09 02:38:07;;;;;;;0.57;0.20;;;2.70;99.90;;;;;;25840585;23;20070;-57
2021/11/09 02:48:20;;;;;;;0.52;0.20;;;2.80;99.90;;;;;;25841138;23;20054;-53
2021/11/09 03:08:36;;;;;;;0.30;0.10;;;3.20;99.90;;;;;;25838846;23;20005;-57
2021/11/09 03:18:49;;;;;;;0.70;0.20;;;3.50;99.90;;;;;;25839521;22;20016;-55
2021/11/09 03:49:36;;;;;;;0.47;0.20;;;2.80;99.90;;;;;;25837832;23;20078;-54
2021/11/09 04:09:57;;;;;;;0.82;0.10;;;3.20;99.90;;;;;;25836690;23;20012;-53
2021/11/09 04:41:21;;;;;;;0.20;0.10;;;4.20;99.30;;;;;;25835162;23;20066;-53
2021/11/09 05:11:14;;;;;;;1.50;0.30;;;1.60;99.90;;;;;;25811343;23;20346;-56
2021/11/09 05:21:17;;;;;;;1.20;0.20;;;1.00;99.90;;;;;;25840988;22;20016;-56
2021/11/09 05:31:20;;;;;;;0.60;0.35;;;1.00;99.90;;;;;;25840984;23;20016;-55
2021/11/09 05:41:23;;;;;;;1.45;0.30;;;2.00;99.90;;;;;;25791034;23;20150;-54
2021/11/09 05:51:26;;;;;;;0.60;0.30;;;2.60;99.90;;;;;;25840777;23;20039;-56
2021/11/09 06:01:29;;;;;;;0.90;0.22;;;2.50;99.90;;;;;;25839284;23;20446;-56
2021/11/09 06:11:33;;;;;;;0.70;0.30;;;1.90;99.90;;;;;;25839936;23;20422;-55
2021/11/09 06:21:35;;;;;;;1.77;0.30;;;1.40;99.90;;;;;;25838123;23;20024;-54
2021/11/09 06:31:38;;;;;;;0.40;0.20;;;1.40;99.90;;;;;;25840393;23;20012;-51
2021/11/09 06:41:41;;;;;;;2.15;0.43;;;1.70;99.90;;;;;;25838211;23;20541;-56
2021/11/09 06:51:44;;;;;;;1.15;0.30;;;2.10;99.90;;;;;;25812991;23;20085;-56
2021/11/09 07:01:47;;;;;;;0.63;0.10;;;2.30;99.90;;;;;;25838840;23;20011;-54
2021/11/09 07:11:50;;;;;;;0.63;0.17;;;2.80;99.90;;;;;;25839063;23;20740;-57
2021/11/09 07:21:55;;;;;;;0.30;0.10;;;3.40;99.90;;;;;;25841030;22;20024;-53
2021/11/09 07:31:57;;;;;;;0.43;0.20;;;4.00;99.90;;;;;;25841515;23;20149;-56
2021/11/09 07:42:00;;;;;;;0.60;0.20;;;4.10;99.90;;;;;;25844429;23;20012;-54
2021/11/09 07:52:04;;;;;;;2.08;0.20;;;4.30;99.90;;;;;;25845233;23;20063;-56
2021/11/09 08:02:31;;;;;;;0.85;0.20;;;4.30;99.90;;;;;;25795831;23;20417;-55
2021/11/09 08:12:30;;;;;;;0.28;0.13;;;4.50;99.90;;;;;;25823468;23;20070;-56
2021/11/09 08:22:34;;;;;;;0.20;0.10;;;5.20;99.90;;;;;;25843880;23;20024;-58
2021/11/09 08:32:37;;;;;;;0.50;0.20;;;6.20;99.70;;;;;;25837090;23;20012;-55
2021/11/09 08:42:47;;;;;;;1.02;0.30;;;7.70;99.90;;;;;;25833577;23;20011;-58
2021/11/09 08:52:50;;;;;;;0.70;0.20;;;8.50;97.50;;;;;;25807842;23;20438;-56
2021/11/09 09:13:02;;;;;;;0.73;0.20;;;9.90;99.20;;;;;;25810833;23;20011;-56
2021/11/09 09:23:09;;;;;;;1.38;0.30;;;9.60;96.50;;;;;;25833143;23;20020;-56
2021/11/09 09:54:01;;;;;;;2.00;0.30;;;10.50;97.40;;;;;;25838582;23;20070;-54
2021/11/09 10:04:04;;;;;;;0.55;0.35;;;9.00;98.60;;;;;;25845393;23;20016;-55
2021/11/09 10:14:08;;;;;;;0.47;0.20;;;8.40;99.90;;;;;;25847071;23;20000;-54
2021/11/09 10:24:28;;;;;;;0.68;0.20;;;8.20;98.80;;;;;;25801424;23;20158;-54
2021/11/09 10:34:31;;;;;;;0.30;0.20;;;8.50;98.70;;;;;;25849802;23;20020;-51
2021/11/09 10:44:34;;;;;;;1.83;0.20;;;9.00;99.10;;;;;;25801081;23;20012;-55
2021/11/09 11:05:22;;;;;;;0.40;0.20;;;8.90;98.70;;;;;;25315926;23;20018;-57
2021/11/09 11:15:25;;;;;;;0.65;0.30;;;9.00;98.50;;;;;;25315356;23;20022;-57
2021/11/09 11:25:28;;;;;;;0.52;0.20;;;9.30;99.00;;;;;;25313833;23;20045;-54
2021/11/09 11:35:31;;;;;;;0.60;0.20;;;9.40;99.10;;;;;;25423046;23;20017;-58
2021/11/09 11:45:53;;;;;;;0.43;0.35;;;10.10;96.20;;;;;;25711669;23;20439;-53
2021/11/09 11:55:59;;;;;;;1.67;0.20;;;10.10;99.90;;;;;;25712318;23;20020;-56
2021/11/09 12:06:18;;;;;;;0.70;0.40;;;10.00;99.10;;;;;;25689649;23;20315;-52
2021/11/09 12:16:39;;;;;;;0.73;0.20;;;9.80;98.90;;;;;;25706453;23;20009;-57
2021/11/09 12:26:47;;;;;;;0.30;0.28;;;9.60;99.90;;;;;;25826216;23;20020;-56
2021/11/09 12:37:09;;;;;;;0.52;0.30;;;10.10;99.90;;;;;;25839654;23;20095;-55
2021/11/09 12:47:14;;;;;;;1.73;0.55;;;10.00;99.90;;;;;;25811802;23;20016;-57
2021/11/09 12:57:18;;;;;;;1.45;0.68;;;9.10;99.90;;;;;;25840111;23;20012;-53
2021/11/09 13:08:02;;;;;;;1.30;0.70;;;9.10;99.90;;;;;;25784493;23;20516;-59
2021/11/09 13:18:02;;;;;;;2.15;0.98;;;9.10;99.90;;;;;;25803351;22;20393;-57
2021/11/09 13:28:14;;;;;;;3.88;1.15;;;9.10;99.90;;;;;;25832342;23;20512;-58
2021/11/09 13:38:31;;;;;;;2.55;1.08;;;8.70;99.90;;;;;;25839722;23;20515;-54
2021/11/09 13:48:36;;;;;;;2.67;0.82;;;8.90;99.90;;;;;;25840009;23;20044;-57
2021/11/09 13:58:40;;;;;;;1.00;0.70;;;8.80;99.90;;;;;;25789716;23;20005;-56
2021/11/09 14:18:53;;;;;;;1.87;1.00;;;8.90;99.90;;;;;;25838596;22;20016;-55
2021/11/09 14:28:57;;;;;;;1.75;1.00;;;8.80;99.90;;;;;;25812794;23;20055;-54
2021/11/09 14:39:16;;;;;;;2.10;1.08;;;8.20;99.90;;;;;;25837194;23;20437;-55
2021/11/09 14:49:25;;;;;;;2.30;1.10;;;8.00;99.90;;;;;;25837636;23;20070;-57
2021/11/09 14:59:27;;;;;;;1.60;0.90;;;8.00;99.90;;;;;;25837138;23;20012;-52
2021/11/09 15:30:43;;;;;;;2.00;1.10;;;7.30;99.90;;;;;;25549700;22;20016;-57
2021/11/09 15:40:49;;;;;;;1.50;0.98;;;6.80;99.90;;;;;;25550288;22;20072;-54
2021/11/09 15:50:52;;;;;;;2.88;1.35;;;6.30;99.90;;;;;;25693463;23;20094;-55
2021/11/09 16:00:56;;;;;;;4.30;1.27;;;5.60;99.90;;;;;;25834945;23;20145;-53
2021/11/09 16:11:09;;;;;;;3.03;0.90;;;5.00;99.90;;;;;;25834626;23;20508;-54
2021/11/09 16:21:12;;;;;;;3.90;1.55;;;4.20;99.90;;;;;;25834025;22;20031;-54
2021/11/09 16:31:16;;;;;;;3.13;1.50;;;3.80;99.90;;;;;;25808827;23;20020;-55
2021/11/09 16:41:21;;;;;;;5.13;1.67;;;3.60;99.90;;;;;;25833347;23;20012;-52
2021/11/09 16:51:27;;;;;;;2.13;0.75;;;3.20;99.90;;;;;;25833309;23;20012;-53
2021/11/09 18:24:02;;;;;;;2.00;0.77;;;2.80;99.90;;;;;;25839111;23;20016;-58
2021/11/09 18:34:05;;;;;;;1.50;0.60;;;2.90;99.90;;;;;;25839079;23;20016;-53
2021/11/09 18:44:08;;;;;;;1.48;0.60;;;3.10;99.90;;;;;;25838446;23;20020;-53
2021/11/09 18:54:10;;;;;;;1.77;0.60;;;3.20;99.90;;;;;;25838483;23;20019;-57
2021/11/09 19:04:14;;;;;;;2.60;0.90;;;3.10;99.90;;;;;;25812560;23;20012;-54
2021/11/09 19:14:19;;;;;;;1.88;0.50;;;3.10;99.90;;;;;;25787742;23;20085;-53
2021/11/09 19:24:21;;;;;;;1.05;0.43;;;3.40;99.90;;;;;;25836787;23;20016;-54
2021/11/09 19:34:24;;;;;;;1.52;0.40;;;3.60;99.90;;;;;;25836750;23;20131;-56
2021/11/09 19:44:27;;;;;;;1.73;0.50;;;4.20;99.90;;;;;;25836228;23;20067;-54
2021/11/09 19:54:30;;;;;;;1.00;0.30;;;4.40;99.90;;;;;;25836325;23;20012;-53
2021/11/09 20:04:33;;;;;;;1.10;0.50;;;4.30;99.90;;;;;;25832947;23;20012;-53
2021/11/09 20:14:39;;;;;;;1.45;0.50;;;4.60;99.90;;;;;;25785119;23;20465;-53
2021/11/09 20:24:44;;;;;;;0.90;0.30;;;5.60;99.90;;;;;;25834784;23;20016;-53
2021/11/09 20:34:47;;;;;;;0.70;0.45;;;6.40;99.90;;;;;;25834492;23;20082;-58
2021/11/09 20:44:52;;;;;;;1.42;0.60;;;7.10;99.90;;;;;;25808899;22;20020;-53
2021/11/09 20:54:55;;;;;;;1.38;0.60;;;7.70;99.90;;;;;;25833970;23;20006;-52
2021/11/09 21:04:57;;;;;;;2.75;0.60;;;7.80;99.90;;;;;;25834006;23;20012;-54
2021/11/09 21:25:22;;;;;;;1.90;0.73;;;7.90;99.90;;;;;;25833058;23;20081;-54
2021/11/09 21:35:27;;;;;;;1.80;0.77;;;7.90;99.90;;;;;;25833113;23;20091;-55
2021/11/09 21:45:33;;;;;;;2.22;1.10;;;8.00;99.90;;;;;;25833718;23;20062;-54
2021/11/09 21:55:37;;;;;;;3.08;0.90;;;7.90;99.90;;;;;;25787424;23;20016;-53
2021/11/09 22:05:41;;;;;;;1.42;0.60;;;8.00;99.90;;;;;;25840300;23;20070;-55
2021/11/09 22:15:44;;;;;;;1.00;0.60;;;7.80;99.90;;;;;;25839452;23;20008;-56
2021/11/09 22:25:48;;;;;;;1.25;0.70;;;7.10;99.90;;;;;;25839240;23;20074;-56
2021/11/09 22:35:52;;;;;;;1.23;0.80;;;6.70;99.90;;;;;;25838927;23;20067;-58
2021/11/09 22:45:55;;;;;;;1.15;0.75;;;7.30;99.90;;;;;;25838704;23;20062;-56
2021/11/09 22:55:57;;;;;;;0.80;0.43;;;7.90;99.90;;;;;;25838582;23;20016;-57
2021/11/09 23:06:00;;;;;;;0.88;0.40;;;8.50;99.90;;;;;;25788065;23;20008;-53
2021/11/09 23:16:04;;;;;;;1.48;0.40;;;8.60;99.90;;;;;;25837431;23;20130;-58
2021/11/09 23:26:07;;;;;;;1.70;0.65;;;8.70;99.90;;;;;;25837528;23;20066;-53
2021/11/09 23:36:10;;;;;;;0.65;0.45;;;8.90;99.90;;;;;;25811149;23;20019;-55
2021/11/09 23:46:13;;;;;;;1.52;0.60;;;8.70;99.90;;;;;;25836462;23;20012;-53
2021/11/09 23:56:16;;;;;;;3.28;1.00;;;8.70;99.90;;;;;;25835762;23;20043;-55
